sensor_id;sensor_type;location;lat;lon;timestamp;P1;P2;P0
35654;PMS1003;21773;50.010;19.972;2023-04-06T00:02:22;24.00;21.00;18.00
35654;PMS1003;21773;50.010;19.972;2023-04-06T00:05:28;24.40;23.00;20.00
35654;PMS1003;21773;50.010;19.972;2023-04-06T00:08:32;20.00;19.60;17.60
35654;PMS1003;21773;50.010;19.972;2023-04-06T00:11:35;22.60;21.00;18.60
35654;PMS1003;21773;50.010;19.972;2023-04-06T00:14:57;24.60;23.60;20.00
35654;PMS1003;21773;50.010;19.972;2023-04-06T00:18:01;26.60;22.60;20.00
35654;PMS1003;21773;50.010;19.972;2023-04-06T00:21:06;28.00;23.00;20.00
35654;PMS1003;21773;50.010;19.972;2023-04-06T00:24:28;19.50;18.25;16.00
35654;PMS1003;21773;50.010;19.972;2023-04-06T00:27:31;24.75;23.00;20.00
35654;PMS1003;21773;50.010;19.972;2023-04-06T00:30:35;24.80;23.40;20.00
35654;PMS1003;21773;50.010;19.972;2023-04-06T00:33:38;23.00;21.00;19.00
35654;PMS1003;21773;50.010;19.972;2023-04-06T00:36:43;25.00;23.00;19.00
35654;PMS1003;21773;50.010;19.972;2023-04-06T00:39:46;25.60;24.40;21.40
35654;PMS1003;21773;50.010;19.972;2023-04-06T00:43:10;25.40;24.40;20.40
35654;PMS1003;21773;50.010;19.972;2023-04-06T00:46:14;19.60;18.60;16.60
35654;PMS1003;21773;50.010;19.972;2023-04-06T00:49:18;24.00;23.50;20.00
35654;PMS1003;21773;50.010;19.972;2023-04-06T00:52:22;29.00;26.00;22.00
35654;PMS1003;21773;50.010;19.972;2023-04-06T00:55:27;23.00;20.00;17.00
35654;PMS1003;21773;50.010;19.972;2023-04-06T00:58:32;25.00;23.25;20.00
35654;PMS1003;21773;50.010;19.972;2023-04-06T01:01:58;26.00;26.00;21.50
35654;PMS1003;21773;50.010;19.972;2023-04-06T01:05:11;28.00;25.60;21.00
35654;PMS1003;21773;50.010;19.972;2023-04-06T01:08:43;27.60;25.60;21.60
35654;PMS1003;21773;50.010;19.972;2023-04-06T01:12:14;28.80;25.00;21.20
35654;PMS1003;21773;50.010;19.972;2023-04-06T01:15:17;25.80;23.80;20.80
35654;PMS1003;21773;50.010;19.972;2023-04-06T01:18:43;26.25;24.00;20.25
35654;PMS1003;21773;50.010;19.972;2023-04-06T01:21:51;28.00;26.40;22.00
35654;PMS1003;21773;50.010;19.972;2023-04-06T01:25:24;27.00;24.80;21.00
35654;PMS1003;21773;50.010;19.972;2023-04-06T01:28:41;28.00;25.80;21.80
35654;PMS1003;21773;50.010;19.972;2023-04-06T01:32:16;25.25;25.00;22.00
35654;PMS1003;21773;50.010;19.972;2023-04-06T01:35:27;23.60;22.60;20.00
35654;PMS1003;21773;50.010;19.972;2023-04-06T01:38:42;25.00;24.00;20.00
35654;PMS1003;21773;50.010;19.972;2023-04-06T01:41:50;23.00;21.20;18.40
35654;PMS1003;21773;50.010;19.972;2023-04-06T01:44:55;26.00;25.00;21.00
35654;PMS1003;21773;50.010;19.972;2023-04-06T01:47:58;29.00;26.50;22.00
35654;PMS1003;21773;50.010;19.972;2023-04-06T01:51:21;26.60;26.60;22.00
35654;PMS1003;21773;50.010;19.972;2023-04-06T01:54:30;26.00;24.60;21.00
35654;PMS1003;21773;50.010;19.972;2023-04-06T01:57:44;24.60;23.60;20.00
35654;PMS1003;21773;50.010;19.972;2023-04-06T02:00:57;24.80;24.40;20.00
35654;PMS1003;21773;50.010;19.972;2023-04-06T02:04:04;25.80;22.20;20.00
35654;PMS1003;21773;50.010;19.972;2023-04-06T02:07:07;26.20;25.00;21.80
35654;PMS1003;21773;50.010;19.972;2023-04-06T02:10:11;25.40;24.00;20.00
35654;PMS1003;21773;50.010;19.972;2023-04-06T02:13:37;27.60;26.20;21.60
35654;PMS1003;21773;50.010;19.972;2023-04-06T02:16:59;28.20;27.20;22.00
35654;PMS1003;21773;50.010;19.972;2023-04-06T02:20:21;27.00;25.00;21.60
35654;PMS1003;21773;50.010;19.972;2023-04-06T02:23:43;22.50;20.00;17.50
35654;PMS1003;21773;50.010;19.972;2023-04-06T02:26:46;24.25;22.00;19.00
35654;PMS1003;21773;50.010;19.972;2023-04-06T02:29:51;27.40;22.80;20.00
35654;PMS1003;21773;50.010;19.972;2023-04-06T02:33:13;27.25;24.25;21.25
35654;PMS1003;21773;50.010;19.972;2023-04-06T02:36:38;24.60;23.80;20.20
35654;PMS1003;21773;50.010;19.972;2023-04-06T02:40:00;26.20;24.20;20.60
35654;PMS1003;21773;50.010;19.972;2023-04-06T02:43:24;34.80;32.40;26.00
35654;PMS1003;21773;50.010;19.972;2023-04-06T02:46:56;30.00;27.40;22.00
35654;PMS1003;21773;50.010;19.972;2023-04-06T02:50:18;30.40;27.40;23.00
35654;PMS1003;21773;50.010;19.972;2023-04-06T02:53:29;26.80;25.00;21.00
35654;PMS1003;21773;50.010;19.972;2023-04-06T02:56:33;24.80;23.80;20.00
35654;PMS1003;21773;50.010;19.972;2023-04-06T02:59:55;28.40;26.00;22.00
35654;PMS1003;21773;50.010;19.972;2023-04-06T03:03:09;21.40;21.00;18.00
35654;PMS1003;21773;50.010;19.972;2023-04-06T03:06:13;32.00;28.00;23.00
35654;PMS1003;21773;50.010;19.972;2023-04-06T03:09:36;28.80;26.20;22.00
35654;PMS1003;21773;50.010;19.972;2023-04-06T03:12:58;27.25;24.50;20.25
35654;PMS1003;21773;50.010;19.972;2023-04-06T03:16:33;24.20;23.00;20.00
35654;PMS1003;21773;50.010;19.972;2023-04-06T03:19:58;25.80;24.00;20.20
35654;PMS1003;21773;50.010;19.972;2023-04-06T03:23:03;24.25;22.25;20.00
35654;PMS1003;21773;50.010;19.972;2023-04-06T03:26:30;24.20;23.20;20.00
35654;PMS1003;21773;50.010;19.972;2023-04-06T03:29:38;23.00;20.25;18.25
35654;PMS1003;21773;50.010;19.972;2023-04-06T03:33:03;27.00;25.00;21.40
35654;PMS1003;21773;50.010;19.972;2023-04-06T03:36:33;25.00;23.40;20.00
35654;PMS1003;21773;50.010;19.972;2023-04-06T03:39:56;30.25;29.25;23.25
35654;PMS1003;21773;50.010;19.972;2023-04-06T03:43:18;27.00;26.00;22.00
35654;PMS1003;21773;50.010;19.972;2023-04-06T03:46:21;24.00;22.80;19.80
35654;PMS1003;21773;50.010;19.972;2023-04-06T03:49:30;25.00;24.00;21.00
35654;PMS1003;21773;50.010;19.972;2023-04-06T03:52:54;24.80;22.80;19.60
35654;PMS1003;21773;50.010;19.972;2023-04-06T03:56:16;25.60;24.40;20.40
35654;PMS1003;21773;50.010;19.972;2023-04-06T03:59:38;24.60;23.00;20.00
35654;PMS1003;21773;50.010;19.972;2023-04-06T04:02:42;29.50;26.00;22.00
35654;PMS1003;21773;50.010;19.972;2023-04-06T04:06:04;24.60;23.60;21.00
35654;PMS1003;21773;50.010;19.972;2023-04-06T04:09:27;25.25;24.00;21.00
35654;PMS1003;21773;50.010;19.972;2023-04-06T04:12:31;25.60;23.60;20.00
35654;PMS1003;21773;50.010;19.972;2023-04-06T04:15:52;27.20;25.80;22.20
35654;PMS1003;21773;50.010;19.972;2023-04-06T04:18:56;26.00;23.60;20.00
35654;PMS1003;21773;50.010;19.972;2023-04-06T04:22:19;25.60;22.60;20.00
35654;PMS1003;21773;50.010;19.972;2023-04-06T04:25:24;29.80;28.20;22.60
35654;PMS1003;21773;50.010;19.972;2023-04-06T04:28:47;25.00;23.20;20.20
35654;PMS1003;21773;50.010;19.972;2023-04-06T04:32:09;25.20;23.20;19.60
35654;PMS1003;21773;50.010;19.972;2023-04-06T04:35:31;30.00;28.00;22.00
35654;PMS1003;21773;50.010;19.972;2023-04-06T04:38:53;21.40;19.00;15.80
35654;PMS1003;21773;50.010;19.972;2023-04-06T04:42:17;31.20;27.80;22.80
35654;PMS1003;21773;50.010;19.972;2023-04-06T04:45:43;32.00;29.00;22.60
35654;PMS1003;21773;50.010;19.972;2023-04-06T04:49:05;30.00;27.00;22.00
35654;PMS1003;21773;50.010;19.972;2023-04-06T04:52:29;28.00;26.40;22.00
35654;PMS1003;21773;50.010;19.972;2023-04-06T04:56:05;25.25;24.25;20.25
35654;PMS1003;21773;50.010;19.972;2023-04-06T04:59:29;30.00;26.00;22.00
35654;PMS1003;21773;50.010;19.972;2023-04-06T05:02:39;28.00;25.80;22.00
35654;PMS1003;21773;50.010;19.972;2023-04-06T05:06:08;25.00;24.40;20.60
35654;PMS1003;21773;50.010;19.972;2023-04-06T05:09:15;29.00;27.00;22.00
35654;PMS1003;21773;50.010;19.972;2023-04-06T05:12:19;29.67;28.67;23.00
35654;PMS1003;21773;50.010;19.972;2023-04-06T05:15:35;28.60;24.80;20.80
35654;PMS1003;21773;50.010;19.972;2023-04-06T05:19:06;27.20;25.00;21.00
35654;PMS1003;21773;50.010;19.972;2023-04-06T05:22:36;27.40;25.00;21.00
35654;PMS1003;21773;50.010;19.972;2023-04-06T05:26:01;26.00;26.00;22.60
35654;PMS1003;21773;50.010;19.972;2023-04-06T05:29:23;29.00;26.00;21.00
35654;PMS1003;21773;50.010;19.972;2023-04-06T05:32:46;29.00;28.00;22.25
35654;PMS1003;21773;50.010;19.972;2023-04-06T05:36:09;31.00;27.80;22.80
35654;PMS1003;21773;50.010;19.972;2023-04-06T05:39:18;31.75;29.25;23.00
35654;PMS1003;21773;50.010;19.972;2023-04-06T05:42:26;30.50;26.00;22.00
35654;PMS1003;21773;50.010;19.972;2023-04-06T05:45:32;33.40;28.60;23.00
35654;PMS1003;21773;50.010;19.972;2023-04-06T05:48:40;33.60;30.00;23.00
35654;PMS1003;21773;50.010;19.972;2023-04-06T05:52:05;27.80;25.80;22.00
35654;PMS1003;21773;50.010;19.972;2023-04-06T05:55:08;30.60;28.60;22.60
35654;PMS1003;21773;50.010;19.972;2023-04-06T05:58:15;30.00;28.00;22.00
35654;PMS1003;21773;50.010;19.972;2023-04-06T06:01:41;29.20;28.00;22.20
35654;PMS1003;21773;50.010;19.972;2023-04-06T06:05:05;30.00;28.40;22.60
35654;PMS1003;21773;50.010;19.972;2023-04-06T06:08:09;31.40;28.20;22.80
35654;PMS1003;21773;50.010;19.972;2023-04-06T06:11:12;21.80;20.00;17.80
35654;PMS1003;21773;50.010;19.972;2023-04-06T06:14:35;22.00;19.00;17.00
35654;PMS1003;21773;50.010;19.972;2023-04-06T06:17:57;20.50;18.50;16.25
35654;PMS1003;21773;50.010;19.972;2023-04-06T06:21:21;19.00;18.00;16.00
35654;PMS1003;21773;50.010;19.972;2023-04-06T06:24:42;20.50;18.25;16.50
35654;PMS1003;21773;50.010;19.972;2023-04-06T06:28:07;21.00;20.00;18.00
35654;PMS1003;21773;50.010;19.972;2023-04-06T06:31:10;20.00;18.00;16.00
35654;PMS1003;21773;50.010;19.972;2023-04-06T06:34:14;25.67;24.00;20.67
35654;PMS1003;21773;50.010;19.972;2023-04-06T06:37:38;21.00;18.00;16.00
35654;PMS1003;21773;50.010;19.972;2023-04-06T06:41:04;20.00;17.80;16.00
35654;PMS1003;21773;50.010;19.972;2023-04-06T06:44:29;19.40;18.40;17.00
35654;PMS1003;21773;50.010;19.972;2023-04-06T06:47:32;15.20;15.20;13.80
35654;PMS1003;21773;50.010;19.972;2023-04-06T06:50:54;19.00;16.00;14.00
35654;PMS1003;21773;50.010;19.972;2023-04-06T06:54:18;20.20;18.80;16.80
35654;PMS1003;21773;50.010;19.972;2023-04-06T06:57:39;16.80;15.00;14.00
35654;PMS1003;21773;50.010;19.972;2023-04-06T07:01:03;16.00;15.00;13.75
35654;PMS1003;21773;50.010;19.972;2023-04-06T07:04:27;14.00;13.40;12.00
35654;PMS1003;21773;50.010;19.972;2023-04-06T07:07:49;18.00;16.40;15.00
35654;PMS1003;21773;50.010;19.972;2023-04-06T07:11:12;18.00;16.00;15.00
35654;PMS1003;21773;50.010;19.972;2023-04-06T07:14:34;16.20;14.20;13.00
35654;PMS1003;21773;50.010;19.972;2023-04-06T07:17:57;17.00;16.00;14.00
35654;PMS1003;21773;50.010;19.972;2023-04-06T07:21:19;17.00;16.00;15.00
35654;PMS1003;21773;50.010;19.972;2023-04-06T07:24:41;19.40;19.00;17.00
35654;PMS1003;21773;50.010;19.972;2023-04-06T07:28:04;17.60;16.00;15.00
35654;PMS1003;21773;50.010;19.972;2023-04-06T07:31:28;17.00;16.50;15.00
35654;PMS1003;21773;50.010;19.972;2023-04-06T07:34:50;18.00;17.00;16.00
35654;PMS1003;21773;50.010;19.972;2023-04-06T07:38:12;14.80;13.80;12.00
35654;PMS1003;21773;50.010;19.972;2023-04-06T07:41:34;16.00;15.00;14.00
35654;PMS1003;21773;50.010;19.972;2023-04-06T07:44:57;16.00;16.00;15.00
35654;PMS1003;21773;50.010;19.972;2023-04-06T07:48:20;15.40;15.40;14.40
35654;PMS1003;21773;50.010;19.972;2023-04-06T07:51:42;17.60;17.00;15.20
35654;PMS1003;21773;50.010;19.972;2023-04-06T07:55:04;16.00;15.60;14.00
35654;PMS1003;21773;50.010;19.972;2023-04-06T07:58:26;18.00;15.60;15.00
35654;PMS1003;21773;50.010;19.972;2023-04-06T08:01:49;19.00;19.00;18.00
35654;PMS1003;21773;50.010;19.972;2023-04-06T08:05:11;15.60;15.00;14.00
35654;PMS1003;21773;50.010;19.972;2023-04-06T08:08:33;21.40;20.40;19.00
35654;PMS1003;21773;50.010;19.972;2023-04-06T08:11:55;15.00;14.20;13.80
35654;PMS1003;21773;50.010;19.972;2023-04-06T08:14:58;18.25;17.25;16.00
35654;PMS1003;21773;50.010;19.972;2023-04-06T08:18:03;14.00;14.00;13.00
35654;PMS1003;21773;50.010;19.972;2023-04-06T08:21:07;18.40;17.00;16.00
35654;PMS1003;21773;50.010;19.972;2023-04-06T08:24:11;16.60;15.60;14.60
35654;PMS1003;21773;50.010;19.972;2023-04-06T08:27:15;19.50;17.50;15.50
35654;PMS1003;21773;50.010;19.972;2023-04-06T08:30:19;18.60;17.40;16.40
35654;PMS1003;21773;50.010;19.972;2023-04-06T08:33:24;16.80;15.40;13.80
35654;PMS1003;21773;50.010;19.972;2023-04-06T08:36:27;17.00;17.00;16.00
35654;PMS1003;21773;50.010;19.972;2023-04-06T08:39:31;16.75;15.00;13.50
35654;PMS1003;21773;50.010;19.972;2023-04-06T08:42:39;18.40;17.00;15.00
35654;PMS1003;21773;50.010;19.972;2023-04-06T08:45:43;18.50;17.00;15.50
35654;PMS1003;21773;50.010;19.972;2023-04-06T08:48:48;13.00;13.00;11.00
35654;PMS1003;21773;50.010;19.972;2023-04-06T08:51:52;13.40;13.40;11.60
35654;PMS1003;21773;50.010;19.972;2023-04-06T08:54:56;14.33;14.00;13.00
35654;PMS1003;21773;50.010;19.972;2023-04-06T08:57:59;13.80;12.80;12.00
35654;PMS1003;21773;50.010;19.972;2023-04-06T09:01:05;14.00;13.50;12.00
35654;PMS1003;21773;50.010;19.972;2023-04-06T09:04:11;13.00;12.75;11.00
35654;PMS1003;21773;50.010;19.972;2023-04-06T09:07:16;15.25;15.00;13.25
35654;PMS1003;21773;50.010;19.972;2023-04-06T09:10:19;17.60;15.00;14.00
35654;PMS1003;21773;50.010;19.972;2023-04-06T09:13:25;15.60;15.00;14.00
35654;PMS1003;21773;50.010;19.972;2023-04-06T09:16:28;15.00;15.00;14.00
35654;PMS1003;21773;50.010;19.972;2023-04-06T09:19:46;12.50;11.00;9.75
35654;PMS1003;21773;50.010;19.972;2023-04-06T09:22:51;13.60;12.60;11.00
35654;PMS1003;21773;50.010;19.972;2023-04-06T09:26:04;16.40;16.00;15.00
35654;PMS1003;21773;50.010;19.972;2023-04-06T09:29:08;17.00;14.75;14.00
35654;PMS1003;21773;50.010;19.972;2023-04-06T09:32:12;14.75;14.50;13.00
35654;PMS1003;21773;50.010;19.972;2023-04-06T09:35:20;14.00;12.00;11.00
35654;PMS1003;21773;50.010;19.972;2023-04-06T09:38:24;15.00;14.50;13.00
35654;PMS1003;21773;50.010;19.972;2023-04-06T09:41:28;14.00;14.00;12.20
35654;PMS1003;21773;50.010;19.972;2023-04-06T09:44:32;13.80;13.40;12.40
35654;PMS1003;21773;50.010;19.972;2023-04-06T09:47:36;17.00;16.25;15.25
35654;PMS1003;21773;50.010;19.972;2023-04-06T09:50:43;12.20;11.80;11.20
35654;PMS1003;21773;50.010;19.972;2023-04-06T09:53:48;12.00;12.00;12.00
35654;PMS1003;21773;50.010;19.972;2023-04-06T09:56:56;14.20;12.60;11.20
35654;PMS1003;21773;50.010;19.972;2023-04-06T10:00:02;15.40;14.60;13.00
35654;PMS1003;21773;50.010;19.972;2023-04-06T10:03:13;16.00;14.00;13.00
35654;PMS1003;21773;50.010;19.972;2023-04-06T10:06:25;14.80;12.80;11.40
35654;PMS1003;21773;50.010;19.972;2023-04-06T10:09:31;14.50;13.00;11.00
35654;PMS1003;21773;50.010;19.972;2023-04-06T10:12:38;13.25;12.50;12.00
35654;PMS1003;21773;50.010;19.972;2023-04-06T10:15:42;14.75;14.00;12.25
35654;PMS1003;21773;50.010;19.972;2023-04-06T10:18:47;19.00;18.00;17.00
35654;PMS1003;21773;50.010;19.972;2023-04-06T10:21:58;17.00;17.00;16.00
35654;PMS1003;21773;50.010;19.972;2023-04-06T10:25:04;16.00;13.25;11.75
35654;PMS1003;21773;50.010;19.972;2023-04-06T10:28:08;14.60;14.60;13.00
35654;PMS1003;21773;50.010;19.972;2023-04-06T10:31:12;13.33;13.00;12.00
35654;PMS1003;21773;50.010;19.972;2023-04-06T10:34:15;16.00;15.80;14.20
35654;PMS1003;21773;50.010;19.972;2023-04-06T10:37:20;16.00;15.00;15.00
35654;PMS1003;21773;50.010;19.972;2023-04-06T10:40:24;23.40;22.20;20.20
35654;PMS1003;21773;50.010;19.972;2023-04-06T10:43:32;18.00;18.00;15.00
35654;PMS1003;21773;50.010;19.972;2023-04-06T10:46:36;19.40;18.00;16.00
35654;PMS1003;21773;50.010;19.972;2023-04-06T10:49:40;12.60;11.40;10.40
35654;PMS1003;21773;50.010;19.972;2023-04-06T10:52:45;17.50;15.50;13.50
35654;PMS1003;21773;50.010;19.972;2023-04-06T10:55:49;17.00;15.00;14.00
35654;PMS1003;21773;50.010;19.972;2023-04-06T10:58:53;14.00;14.00;12.60
35654;PMS1003;21773;50.010;19.972;2023-04-06T11:01:58;18.00;17.60;15.60
35654;PMS1003;21773;50.010;19.972;2023-04-06T11:05:01;15.00;14.80;13.80
35654;PMS1003;21773;50.010;19.972;2023-04-06T11:08:06;15.80;15.00;13.40
35654;PMS1003;21773;50.010;19.972;2023-04-06T11:11:11;16.25;14.25;13.25
35654;PMS1003;21773;50.010;19.972;2023-04-06T11:14:17;19.60;18.00;16.00
35654;PMS1003;21773;50.010;19.972;2023-04-06T11:17:25;18.00;17.00;15.00
35654;PMS1003;21773;50.010;19.972;2023-04-06T11:20:28;18.40;16.40;14.60
35654;PMS1003;21773;50.010;19.972;2023-04-06T11:23:33;17.00;16.00;14.80
35654;PMS1003;21773;50.010;19.972;2023-04-06T11:26:37;13.40;13.00;12.40
35654;PMS1003;21773;50.010;19.972;2023-04-06T11:29:46;22.00;20.00;18.00
35654;PMS1003;21773;50.010;19.972;2023-04-06T11:32:51;15.00;14.20;13.00
35654;PMS1003;21773;50.010;19.972;2023-04-06T11:35:56;22.00;19.40;17.00
35654;PMS1003;21773;50.010;19.972;2023-04-06T11:39:01;19.00;19.00;17.00
35654;PMS1003;21773;50.010;19.972;2023-04-06T11:42:06;18.00;17.00;15.00
35654;PMS1003;21773;50.010;19.972;2023-04-06T11:45:10;13.00;11.75;10.00
35654;PMS1003;21773;50.010;19.972;2023-04-06T11:48:18;18.00;17.00;15.75
35654;PMS1003;21773;50.010;19.972;2023-04-06T11:51:26;15.50;15.00;14.00
35654;PMS1003;21773;50.010;19.972;2023-04-06T11:54:31;17.00;17.00;15.40
35654;PMS1003;21773;50.010;19.972;2023-04-06T11:57:35;18.60;17.60;15.00
35654;PMS1003;21773;50.010;19.972;2023-04-06T12:00:38;18.00;17.00;16.00
35654;PMS1003;21773;50.010;19.972;2023-04-06T12:03:48;16.00;15.00;13.50
35654;PMS1003;21773;50.010;19.972;2023-04-06T12:06:52;17.00;17.00;14.60
35654;PMS1003;21773;50.010;19.972;2023-04-06T12:09:58;16.75;14.00;12.75
35654;PMS1003;21773;50.010;19.972;2023-04-06T12:13:01;14.40;13.80;12.00
35654;PMS1003;21773;50.010;19.972;2023-04-06T12:16:05;16.60;15.00;15.00
35654;PMS1003;21773;50.010;19.972;2023-04-06T12:19:09;17.00;16.00;14.80
35654;PMS1003;21773;50.010;19.972;2023-04-06T12:22:12;18.00;16.00;13.00
35654;PMS1003;21773;50.010;19.972;2023-04-06T12:25:17;19.00;18.00;16.00
35654;PMS1003;21773;50.010;19.972;2023-04-06T12:28:20;16.00;14.00;12.00
35654;PMS1003;21773;50.010;19.972;2023-04-06T12:31:24;18.20;16.80;15.80
35654;PMS1003;21773;50.010;19.972;2023-04-06T12:34:28;16.40;14.40;13.00
35654;PMS1003;21773;50.010;19.972;2023-04-06T12:37:32;19.00;17.40;16.00
35654;PMS1003;21773;50.010;19.972;2023-04-06T12:40:37;20.80;19.20;18.20
35654;PMS1003;21773;50.010;19.972;2023-04-06T12:43:41;20.00;18.00;16.80
35654;PMS1003;21773;50.010;19.972;2023-04-06T12:46:45;18.50;17.50;15.50
35654;PMS1003;21773;50.010;19.972;2023-04-06T12:49:48;22.40;17.40;15.40
35654;PMS1003;21773;50.010;19.972;2023-04-06T12:52:52;17.00;14.20;12.80
35654;PMS1003;21773;50.010;19.972;2023-04-06T12:55:57;17.80;16.20;14.00
35654;PMS1003;21773;50.010;19.972;2023-04-06T12:59:01;18.60;17.20;16.00
35654;PMS1003;21773;50.010;19.972;2023-04-06T13:02:04;17.40;15.40;14.40
35654;PMS1003;21773;50.010;19.972;2023-04-06T13:05:08;15.00;14.50;14.00
35654;PMS1003;21773;50.010;19.972;2023-04-06T13:08:11;20.00;18.75;16.75
35654;PMS1003;21773;50.010;19.972;2023-04-06T13:11:17;20.00;18.60;15.60
35654;PMS1003;21773;50.010;19.972;2023-04-06T13:14:22;17.00;17.00;16.00
35654;PMS1003;21773;50.010;19.972;2023-04-06T13:17:26;16.80;16.60;15.20
35654;PMS1003;21773;50.010;19.972;2023-04-06T13:20:30;19.40;17.40;15.40
35654;PMS1003;21773;50.010;19.972;2023-04-06T13:23:33;20.40;20.00;19.00
35654;PMS1003;21773;50.010;19.972;2023-04-06T13:26:39;20.50;19.00;18.00
35654;PMS1003;21773;50.010;19.972;2023-04-06T13:29:42;20.80;19.20;17.60
35654;PMS1003;21773;50.010;19.972;2023-04-06T13:32:45;20.00;17.20;14.80
35654;PMS1003;21773;50.010;19.972;2023-04-06T13:35:49;20.00;19.00;17.00
35654;PMS1003;21773;50.010;19.972;2023-04-06T13:38:53;19.75;18.75;16.75
35654;PMS1003;21773;50.010;19.972;2023-04-06T13:41:58;22.20;20.60;18.20
35654;PMS1003;21773;50.010;19.972;2023-04-06T13:45:04;16.50;14.75;12.75
35654;PMS1003;21773;50.010;19.972;2023-04-06T13:48:08;20.50;18.50;16.50
35654;PMS1003;21773;50.010;19.972;2023-04-06T13:51:12;20.40;19.60;18.00
35654;PMS1003;21773;50.010;19.972;2023-04-06T13:54:16;24.40;24.00;20.40
35654;PMS1003;21773;50.010;19.972;2023-04-06T13:57:21;21.75;20.00;18.25
35654;PMS1003;21773;50.010;19.972;2023-04-06T14:00:24;22.00;20.75;18.75
35654;PMS1003;21773;50.010;19.972;2023-04-06T14:03:27;24.60;22.00;20.00
35654;PMS1003;21773;50.010;19.972;2023-04-06T14:06:31;23.00;21.00;19.00
35654;PMS1003;21773;50.010;19.972;2023-04-06T14:09:34;24.00;23.00;20.00
35654;PMS1003;21773;50.010;19.972;2023-04-06T14:12:45;27.00;25.00;21.40
35654;PMS1003;21773;50.010;19.972;2023-04-06T14:15:54;22.60;22.00;19.60
35654;PMS1003;21773;50.010;19.972;2023-04-06T14:18:59;27.00;25.80;22.00
35654;PMS1003;21773;50.010;19.972;2023-04-06T14:22:03;21.00;20.60;18.00
35654;PMS1003;21773;50.010;19.972;2023-04-06T14:25:07;24.00;22.40;20.00
35654;PMS1003;21773;50.010;19.972;2023-04-06T14:28:12;23.00;22.00;19.00
35654;PMS1003;21773;50.010;19.972;2023-04-06T14:31:16;23.25;21.25;19.25
35654;PMS1003;21773;50.010;19.972;2023-04-06T14:34:19;24.25;23.00;20.00
35654;PMS1003;21773;50.010;19.972;2023-04-06T14:37:22;29.50;28.00;22.50
35654;PMS1003;21773;50.010;19.972;2023-04-06T14:40:26;26.00;25.40;22.00
35654;PMS1003;21773;50.010;19.972;2023-04-06T14:43:30;25.00;23.60;20.00
35654;PMS1003;21773;50.010;19.972;2023-04-06T14:46:34;27.00;25.60;21.60
35654;PMS1003;21773;50.010;19.972;2023-04-06T14:49:37;30.00;29.00;23.00
35654;PMS1003;21773;50.010;19.972;2023-04-06T14:52:40;25.00;24.00;20.60
35654;PMS1003;21773;50.010;19.972;2023-04-06T14:55:44;27.40;26.60;22.00
35654;PMS1003;21773;50.010;19.972;2023-04-06T14:58:48;26.00;24.00;21.00
35654;PMS1003;21773;50.010;19.972;2023-04-06T15:01:53;24.80;23.00;20.20
35654;PMS1003;21773;50.010;19.972;2023-04-06T15:04:56;24.60;23.00;19.60
35654;PMS1003;21773;50.010;19.972;2023-04-06T15:08:00;31.50;29.50;23.50
35654;PMS1003;21773;50.010;19.972;2023-04-06T15:11:03;25.00;23.00;20.00
35654;PMS1003;21773;50.010;19.972;2023-04-06T15:14:08;25.75;24.75;22.00
35654;PMS1003;21773;50.010;19.972;2023-04-06T15:17:11;32.60;30.00;24.40
35654;PMS1003;21773;50.010;19.972;2023-04-06T15:20:14;26.33;25.00;20.33
35654;PMS1003;21773;50.010;19.972;2023-04-06T15:23:18;29.40;27.40;23.00
35654;PMS1003;21773;50.010;19.972;2023-04-06T15:26:21;27.00;25.60;22.00
35654;PMS1003;21773;50.010;19.972;2023-04-06T15:29:26;26.25;26.00;22.00
35654;PMS1003;21773;50.010;19.972;2023-04-06T15:32:29;26.00;24.40;21.00
35654;PMS1003;21773;50.010;19.972;2023-04-06T15:35:34;26.00;24.60;21.00
35654;PMS1003;21773;50.010;19.972;2023-04-06T15:38:41;31.80;29.00;23.00
35654;PMS1003;21773;50.010;19.972;2023-04-06T15:41:44;28.20;26.20;22.00
35654;PMS1003;21773;50.010;19.972;2023-04-06T15:44:49;29.75;25.75;22.00
35654;PMS1003;21773;50.010;19.972;2023-04-06T15:47:52;28.00;25.75;21.25
35654;PMS1003;21773;50.010;19.972;2023-04-06T15:50:56;28.00;25.00;21.00
35654;PMS1003;21773;50.010;19.972;2023-04-06T15:53:59;34.40;30.00;24.00
35654;PMS1003;21773;50.010;19.972;2023-04-06T15:57:02;31.00;27.40;22.00
35654;PMS1003;21773;50.010;19.972;2023-04-06T16:00:08;32.00;29.40;23.00
35654;PMS1003;21773;50.010;19.972;2023-04-06T16:03:12;29.00;28.25;23.00
35654;PMS1003;21773;50.010;19.972;2023-04-06T16:06:16;35.33;30.00;23.00
35654;PMS1003;21773;50.010;19.972;2023-04-06T16:09:19;31.60;29.40;23.00
35654;PMS1003;21773;50.010;19.972;2023-04-06T16:12:22;33.00;30.00;23.00
35654;PMS1003;21773;50.010;19.972;2023-04-06T16:15:31;35.00;31.00;24.75
35654;PMS1003;21773;50.010;19.972;2023-04-06T16:18:34;33.50;30.00;22.50
35654;PMS1003;21773;50.010;19.972;2023-04-06T16:21:37;37.20;31.80;25.20
35654;PMS1003;21773;50.010;19.972;2023-04-06T16:24:41;31.75;29.75;23.00
35654;PMS1003;21773;50.010;19.972;2023-04-06T16:27:44;37.00;33.00;26.00
35654;PMS1003;21773;50.010;19.972;2023-04-06T16:30:50;39.50;32.25;25.50
35654;PMS1003;21773;50.010;19.972;2023-04-06T16:33:54;38.00;33.00;25.50
35654;PMS1003;21773;50.010;19.972;2023-04-06T16:36:58;46.00;35.20;27.20
35654;PMS1003;21773;50.010;19.972;2023-04-06T16:40:03;39.50;35.00;27.00
35654;PMS1003;21773;50.010;19.972;2023-04-06T16:43:06;37.80;33.00;25.20
35654;PMS1003;21773;50.010;19.972;2023-04-06T16:46:12;40.00;35.00;27.00
35654;PMS1003;21773;50.010;19.972;2023-04-06T16:49:15;37.50;32.00;26.00
35654;PMS1003;21773;50.010;19.972;2023-04-06T16:52:20;42.80;35.00;28.00
35654;PMS1003;21773;50.010;19.972;2023-04-06T16:55:24;39.60;35.00;27.00
35654;PMS1003;21773;50.010;19.972;2023-04-06T16:58:28;38.00;33.00;26.00
35654;PMS1003;21773;50.010;19.972;2023-04-06T17:01:32;40.00;33.60;26.60
35654;PMS1003;21773;50.010;19.972;2023-04-06T17:04:36;39.00;33.00;27.00
35654;PMS1003;21773;50.010;19.972;2023-04-06T17:07:39;36.00;32.00;25.00
35654;PMS1003;21773;50.010;19.972;2023-04-06T17:10:42;42.25;34.25;27.00
35654;PMS1003;21773;50.010;19.972;2023-04-06T17:14:03;40.75;34.75;27.75
35654;PMS1003;21773;50.010;19.972;2023-04-06T17:17:08;35.20;32.20;25.60
35654;PMS1003;21773;50.010;19.972;2023-04-06T17:20:11;37.50;33.00;25.00
35654;PMS1003;21773;50.010;19.972;2023-04-06T17:23:15;35.60;32.00;26.00
35654;PMS1003;21773;50.010;19.972;2023-04-06T17:26:18;36.75;32.00;25.50
35654;PMS1003;21773;50.010;19.972;2023-04-06T17:29:23;38.25;32.00;26.00
35654;PMS1003;21773;50.010;19.972;2023-04-06T17:32:28;38.00;33.00;25.00